Flight Track Log - Related Links

Times and Time Zones

All times are in EST time to prevent confusion due to time zone crossing. See the BOE2 flight status page for this flight to view local times or setup timezone preferences in your user account.

Time Position Orientation Groundspeed Altitude Reporting Facility
EST Latitude Longitude Course Direction KTS km/h meters Rate Location/Type
Thu 15:17:25 47.5117 -122.2878 149° Southeast 171 317 335  Level Seattle Center
Thu 15:18:01 47.4800 -122.2594 149° Southeast 215 398 732 759 Climbing Seattle Center
Thu 15:18:18 47.4647 -122.2442 146° Southeast 207 383 1,006 989 Climbing Seattle Center
Thu 15:19:02 47.4219 -122.2061 149° Southeast 270 501 1,737 960 Climbing Seattle Center
Thu 15:19:19 47.3997 -122.2019 173° South 257 476 1,981 309 Climbing Seattle Center
Thu 15:20:19 47.3328 -122.2294 196° South 268 496 2,134 76 Climbing Seattle Center
Thu 15:21:20 47.3214 -122.3361 261° West 265 491 2,134  Level Seattle Center
Thu 15:22:21 47.3144 -122.4450 265° West 266 492 2,134 495 Level Seattle Center
Thu 15:23:22 47.3058 -122.5556 263° West 270 501 3,139 720 Climbing Seattle Center
Thu 15:24:23 47.2956 -122.6828 263° West 325 602 3,597 720 Climbing Seattle Center
Thu 15:25:24 47.2825 -122.8439 263° West 367 679 4,602 914 Climbing Seattle Center
Thu 15:26:25 47.2583 -122.9964 257° West 386 715 5,456 720 Climbing Seattle Center
Thu 15:27:26 47.1889 -123.1033 226° Southwest 432 800 6,066 570 Climbing Seattle Center
Thu 15:28:27 47.0656 -123.1486 194° South 455 843 6,614 555 Climbing Seattle Center
Thu 15:29:28 46.9353 -123.1964 194° South 478 885 7,193 525 Climbing Seattle Center
Thu 15:30:29 46.7983 -123.2486 195° South 503 932 7,681 480 Climbing Seattle Center
Thu 15:31:30 46.6575 -123.2992 194° South 519 961 8,169 420 Climbing Seattle Center
Thu 15:32:31 46.4833 -123.3672 195° South 542 1004 8,534 180 Climbing Seattle Center
Thu 15:33:32 46.3400 -123.4214 195° South 537 995 8,534 255 Level Seattle Center
Thu 15:34:33 46.1964 -123.4756 195° South 537 995 9,053 510 Climbing Seattle Center
Thu 15:35:34 46.0506 -123.5303 195° South 542 1004 9,571 480 Climbing Seattle Center
Thu 15:36:35 45.9047 -123.5842 194° South 545 1009 10,028 420 Climbing Seattle Center
Thu 15:37:36 45.7597 -123.6350 194° South 542 1004 10,424 330 Climbing Seattle Center
Thu 15:38:37 45.6119 -123.6897 195° South 548 1015 10,698 195 Climbing Seattle Center
Thu 15:39:38 45.4644 -123.7431 194° South 551 1020 10,820 60 Climbing Seattle Center
Thu 15:40:39 45.3181 -123.7958 194° South 549 1017 10,820  Level Seattle Center
Thu 15:41:40 45.1722 -123.8481 194° South 548 1015 10,820  Level Seattle Center
Thu 15:42:41 44.9994 -123.9117 195° South 545 1009 10,820 -15 Level Seattle Center
Thu 15:43:42 44.8556 -123.9631 194° South 546 1011 10,790  Descending Seattle Center
Thu 15:44:43 44.7044 -123.9872 186° South 559 1035 10,820 15 Climbing Seattle Center
Thu 15:45:44 44.5503 -123.9911 181° South 560 1036 10,820 -15 Level Seattle Center
Thu 15:46:45 44.3942 -123.9536 170° South 578 1070 10,790  Descending Seattle Center
Thu 15:47:46 44.2394 -123.9022 167° South 577 1069 10,820 15 Climbing Seattle Center
Thu 15:48:47 44.0822 -123.8911 177° South 564 1044 10,820 -15 Level Seattle Center
Thu 15:49:48 43.9300 -123.9167 187° South 556 1030 10,790  Descending Seattle Center
Thu 15:50:49 43.7475 -123.9453 186° South 553 1024 10,820 30 Climbing Seattle Center
Thu 15:51:50 43.6436 -124.0383 213° Southwest 507 938 10,851 30 Climbing Seattle Center
Thu 15:52:51 43.5856 -124.2147 246° West 452 837 10,881 30 Climbing Seattle Center
Thu 15:53:52 43.5353 -124.3767 247° West 457 847 10,912  Climbing Seattle Center
Thu 15:54:53 43.4847 -124.5364 246° West 457 847 10,881  Descending Seattle Center
Thu 15:55:54 43.4339 -124.6975 247° West 458 848 10,912  Climbing Seattle Center
Thu 15:56:55 43.3836 -124.8572 247° West 456 845 10,881 -15 Descending Seattle Center
Thu 15:57:56 43.3328 -125.0189 247° West 460 851 10,881  Level Seattle Center
Thu 15:58:57 43.2808 -125.1786 246° West 460 851 10,881  Level Seattle Center
Thu 15:59:58 43.2283 -125.3389 246° West 461 855 10,881  Level Seattle Center
Thu 16:00:59 43.1181 -125.4425 214° Southwest 513 950 10,881 -15 Level Seattle Center
Thu 16:02:00 42.9764 -125.3464 154° Southeast 574 1064 10,851  Descending Seattle Center
Thu 16:03:01 42.8311 -125.2017 144° Southeast 581 1077 10,881 15 Climbing Seattle Center
Thu 16:04:02 42.7003 -125.0725 144° Southeast 581 1077 10,881  Level Seattle Center
Thu 16:05:03 42.5689 -124.9425 144° Southeast 582 1078 10,881  Level Seattle Center
Thu 16:06:04 42.4369 -124.8156 145° Southeast 583 1080 10,881  Level Seattle Center
Thu 16:07:05 42.3053 -124.6889 145° Southeast 581 1077 10,881  Level Seattle Center
Thu 16:08:06 42.1744 -124.5589 144° Southeast 584 1081 10,881  Level Seattle Center
Thu 16:09:07 42.0414 -124.4317 145° Southeast 585 1083 10,881 -15 Level Seattle Center
Thu 16:10:08 41.8836 -124.2775 144° Southeast 585 1083 10,851  Descending Seattle Center
Thu 16:11:09 41.7517 -124.1514 144° Southeast 582 1078 10,881 15 Climbing Seattle Center
Thu 16:12:10 41.6047 -124.1647 184° South 550 1019 10,881  Level Seattle Center
Thu 16:13:11 41.5747 -124.3100 255° West 443 821 10,881  Level Seattle Center
Thu 16:14:12 41.6583 -124.3936 323° Northwest 389 721 10,881  Level Seattle Center
Thu 16:15:13 41.7444 -124.4728 326° Northwest 381 705 10,881  Level Seattle Center
Thu 16:16:14 41.8328 -124.5514 326° Northwest 380 703 10,881  Level Seattle Center
Thu 16:17:15 41.9197 -124.6300 326° Northwest 379 702 10,881  Level Seattle Center
Thu 16:18:16 42.0069 -124.7092 326° Northwest 379 702 10,881 -15 Level Seattle Center
Thu 16:19:17 42.0950 -124.7872 327° Northwest 380 703 10,851  Descending Seattle Center
Thu 16:20:18 42.1833 -124.8672 326° Northwest 381 705 10,881 15 Climbing Seattle Center
Thu 16:21:19 42.2722 -124.9442 327° Northwest 383 710 10,881  Level Seattle Center
Thu 16:22:20 42.3767 -125.0386 326° Northwest 378 700 10,881 -15 Level Seattle Center
Thu 16:23:21 42.4650 -125.1169 327° Northwest 379 702 10,851  Descending Seattle Center
Thu 16:24:22 42.5517 -125.1944 327° Northwest 376 697 10,881 15 Climbing Seattle Center
Thu 16:25:24 42.6394 -125.2686 328° Northwest 372 689 10,881  Level Seattle Center
Thu 16:26:25 42.7256 -125.3464 326° Northwest 374 692 10,881  Level Seattle Center
Thu 16:27:26 42.8117 -125.4225 327° Northwest 370 686 10,881  Level Seattle Center
Thu 16:28:27 42.9078 -125.5056 328° Northwest 373 690 10,881  Level Seattle Center
Thu 16:29:28 42.9953 -125.5803 328° Northwest 372 689 10,881  Level Seattle Center
Thu 16:30:29 43.0825 -125.6569 327° Northwest 372 689 10,881 -15 Level Seattle Center
Thu 16:31:30 43.1706 -125.7353 327° Northwest 376 697 10,851  Descending Seattle Center
Thu 16:32:31 43.2617 -125.8175 327° Northwest 384 711 10,881 15 Climbing Seattle Center
Thu 16:33:32 43.3508 -125.8939 328° Northwest 382 708 10,881  Level Seattle Center
Thu 16:34:33 43.4381 -125.9683 328° Northwest 378 700 10,881  Level Seattle Center
Thu 16:35:34 43.5297 -126.0428 330° Northwest 382 708 10,881 15 Level Seattle Center
Thu 16:36:35 43.6275 -125.9597 32° Northeast 476 882 10,912 15 Climbing Seattle Center
Thu 16:37:36 43.5944 -125.7669 103° East 600 1110 10,912 15 Level Seattle Center
Thu 16:38:37 43.4669 -125.6267 141° Southeast 599 1109 10,942 15 Climbing Seattle Center
Thu 16:39:38 43.3108 -125.4592 142° Southeast 595 1102 10,942 -15 Level Seattle Center
Thu 16:40:39 43.1614 -125.4167 168° South 561 1040 10,912  Descending Seattle Center
Thu 16:41:41 43.0089 -125.3736 168° South 572 1059 10,942 15 Climbing Seattle Center
Thu 16:42:42 42.8939 -125.2511 142° Southeast 588 1090 10,942  Level Seattle Center
Thu 16:43:43 42.7642 -125.1189 143° Southeast 585 1083 10,942  Level Seattle Center
Thu 16:44:44 42.6072 -124.9597 143° Southeast 587 1088 10,942  Level Seattle Center
Thu 16:45:45 42.4769 -124.8253 143° Southeast 589 1091 10,942  Level Seattle Center
Thu 16:46:46 42.3464 -124.6933 143° Southeast 587 1088 10,942  Level Seattle Center
Thu 16:47:47 42.2150 -124.5597 143° Southeast 590 1093 10,942  Level Seattle Center
Thu 16:48:48 42.0839 -124.4264 143° Southeast 589 1091 10,942  Level Seattle Center
Thu 16:49:49 41.9408 -124.3483 158° South 567 1049 10,942 15 Level Seattle Center
Thu 16:50:51 41.8411 -124.4528 218° Southwest 487 901 10,973  Climbing Seattle Center
Thu 16:51:52 41.8861 -124.5642 299° West 382 708 10,942  Descending Seattle Center
Thu 16:52:53 41.9686 -124.6467 323° Northwest 369 684 10,973 15 Climbing Seattle Center
Thu 16:53:54 42.0500 -124.7292 323° Northwest 369 684 10,973  Level Seattle Center
Thu 16:54:55 42.1325 -124.8133 323° Northwest 371 687 10,973  Level Seattle Center
Thu 16:55:56 42.2319 -124.9114 324° Northwest 370 686 10,973  Level Seattle Center
Thu 16:56:57 42.3142 -124.9939 323° Northwest 370 686 10,973  Level Seattle Center
Thu 16:57:58 42.3986 -125.0747 325° Northwest 371 687 10,973 -15 Level Seattle Center
Thu 16:58:59 42.4806 -125.1567 324° Northwest 369 684 10,942  Descending Seattle Center
Thu 17:00:00 42.5625 -125.2414 323° Northwest 372 689 10,973  Climbing Seattle Center
Thu 17:01:01 42.6467 -125.3228 325° Northwest 372 689 10,942 -15 Descending Seattle Center
Thu 17:02:02 42.7297 -125.4042 324° Northwest 369 684 10,942 90 Level Seattle Center
Thu 17:03:03 42.8142 -125.4883 324° Northwest 374 692 11,125 315 Climbing Seattle Center
Thu 17:04:04 42.9094 -125.5817 324° Northwest 383 710 11,582 330 Climbing Seattle Center
Thu 17:05:05 42.9928 -125.6611 325° Northwest 373 690 11,796 119 Climbing Seattle Center
Thu 17:06:07 43.0906 -125.5992 25° Northeast 420 777 11,826 45 Climbing Seattle Center
Thu 17:07:08 43.0586 -125.4203 104° East 506 937 11,887 30 Climbing Seattle Center
Thu 17:08:09 42.9314 -125.2967 145° Southeast 553 1024 11,887  Level Seattle Center
Thu 17:09:10 42.7903 -125.1644 145° Southeast 561 1040 11,887 -15 Level Seattle Center
Thu 17:10:11 42.6611 -125.0450 146° Southeast 562 1041 11,857  Descending Seattle Center
Thu 17:11:12 42.5314 -124.9267 146° Southeast 562 1041 11,887 15 Climbing Seattle Center
Thu 17:12:13 42.4017 -124.8086 146° Southeast 562 1041 11,887  Level Seattle Center
Thu 17:13:14 42.2736 -124.6894 145° Southeast 561 1040 11,887  Level Seattle Center
Thu 17:14:15 42.1456 -124.5714 146° Southeast 558 1033 11,887  Level Seattle Center
Thu 17:15:16 42.0178 -124.4531 145° Southeast 558 1033 11,887  Level Seattle Center
Thu 17:16:17 41.8889 -124.3339 145° Southeast 561 1040 11,887  Level Seattle Center
Thu 17:17:18 41.7558 -124.2272 149° Southeast 561 1040 11,887  Level Seattle Center
Thu 17:18:19 41.6317 -124.2933 202° Southwest 516 956 11,887  Level Seattle Center
Thu 17:19:20 41.6636 -124.4478 286° West 421 779 11,887  Level Seattle Center
Thu 17:20:21 41.7556 -124.5325 326° Northwest 403 747 11,887  Level Seattle Center
Thu 17:21:22 41.8506 -124.6178 326° Northwest 406 752 11,887  Level Seattle Center
Thu 17:22:23 41.9428 -124.7042 325° Northwest 407 753 11,887  Level Seattle Center
Thu 17:23:23 42.0356 -124.7886 326° Northwest 405 750 11,887  Level Seattle Center
Thu 17:24:24 42.1289 -124.8747 326° Northwest 406 752 11,887  Level Seattle Center
Thu 17:25:25 42.2225 -124.9600 326° Northwest 407 753 11,887  Level Seattle Center
Thu 17:26:26 42.3167 -125.0472 326° Northwest 410 760 11,887  Level Seattle Center
Thu 17:27:27 42.4097 -125.1336 326° Northwest 408 756 11,887  Level Seattle Center
Thu 17:28:28 42.5033 -125.2208 326° Northwest 409 758 11,887  Level Seattle Center
Thu 17:29:29 42.5978 -125.3094 325° Northwest 411 761 11,887  Level Seattle Center
Thu 17:30:30 42.6917 -125.3956 326° Northwest 410 760 11,887 -15 Level Seattle Center
Thu 17:31:31 42.7839 -125.4792 326° Northwest 403 747 11,857  Descending Seattle Center
Thu 17:32:32 42.8856 -125.5725 326° Northwest 404 748 11,887  Climbing Seattle Center
Thu 17:33:33 42.9797 -125.6544 328° Northwest 403 747 11,857  Descending Seattle Center
Thu 17:34:33 43.0747 -125.7342 328° Northwest 402 745 11,887 15 Climbing Seattle Center
Thu 17:35:34 43.1783 -125.6572 28° Northeast 476 882 11,887  Level Seattle Center
Thu 17:36:35 43.1331 -125.4733 109° East 553 1024 11,887  Level Seattle Center
Thu 17:37:36 43.0078 -125.3522 145° Southeast 556 1030 11,887 -15 Level Seattle Center
Thu 17:38:37 42.8642 -125.2181 146° Southeast 561 1040 11,857 -15 Descending Seattle Center
Thu 17:39:38 42.7342 -125.0972 146° Southeast 566 1048 11,857 15 Level Seattle Center
Thu 17:40:39 42.6047 -124.9792 146° Southeast 564 1044 11,887 15 Climbing Seattle Center
Thu 17:41:40 42.4761 -124.8586 145° Southeast 562 1041 11,887  Level Seattle Center
Thu 17:42:40 42.3472 -124.7394 146° Southeast 561 1040 11,887 -15 Level Seattle Center
Thu 17:43:41 42.2194 -124.6192 145° Southeast 560 1036 11,857  Descending Seattle Center
Thu 17:44:42 42.0914 -124.4986 145° Southeast 561 1040 11,887 15 Climbing Seattle Center
Thu 17:45:43 41.9619 -124.3819 146° Southeast 561 1040 11,887  Level Seattle Center
Thu 17:46:44 41.8003 -124.4364 194° South 520 962 11,887  Level Seattle Center
Thu 17:47:45 41.7808 -124.5886 260° West 447 827 11,887  Level Seattle Center
Thu 17:48:46 41.8653 -124.6875 319° Northwest 410 760 11,887  Level Seattle Center
Thu 17:49:47 41.9578 -124.7758 325° Northwest 409 758 11,887  Level Seattle Center
Thu 17:50:47 42.0497 -124.8656 324° Northwest 409 758 11,887  Level Seattle Center
Thu 17:51:48 42.1425 -124.9519 325° Northwest 407 753 11,887  Level Seattle Center
Thu 17:52:49 42.2347 -125.0392 325° Northwest 407 753 11,887  Level Seattle Center
Thu 17:53:50 42.3275 -125.1281 325° Northwest 408 756 11,887  Level Seattle Center
Thu 17:54:51 42.4194 -125.2175 324° Northwest 409 758 11,887  Level Seattle Center
Thu 17:55:52 42.5119 -125.3069 325° Northwest 409 758 11,887  Level Seattle Center
Thu 17:56:53 42.6044 -125.3939 325° Northwest 407 753 11,887  Level Seattle Center
Thu 17:57:53 42.6972 -125.4806 326° Northwest 406 752 11,887  Level Seattle Center
Thu 17:58:54 42.7889 -125.5697 324° Northwest 406 752 11,887  Level Seattle Center
Thu 17:59:55 42.8914 -125.6631 326° Northwest 406 752 11,887  Level Seattle Center
Thu 18:00:56 42.9992 -125.5950 25° Northeast 458 848 11,887 -15 Level Seattle Center
Thu 18:01:57 42.9778 -125.4094 99° East 519 961 11,857  Descending Seattle Center
Thu 18:02:58 42.8406 -125.2575 141° Southeast 568 1053 11,887 15 Climbing Seattle Center
Thu 18:03:59 42.7158 -125.1267 142° Southeast 568 1053 11,887  Level Seattle Center
Thu 18:05:00 42.5908 -124.9931 142° Southeast 570 1056 11,887  Level Seattle Center
Thu 18:06:00 42.4661 -124.8614 142° Southeast 571 1057 11,887  Level Seattle Center
Thu 18:07:01 42.3419 -124.7308 142° Southeast 567 1049 11,887  Level Seattle Center
Thu 18:08:02 42.2186 -124.5986 142° Southeast 566 1048 11,887  Level Seattle Center
Thu 18:09:03 42.0942 -124.4697 142° Southeast 565 1046 11,887  Level Seattle Center
Thu 18:10:04 41.9708 -124.3386 142° Southeast 565 1046 11,887  Level Seattle Center
Thu 18:11:05 41.8478 -124.2078 142° Southeast 565 1046 11,887  Level Seattle Center
Thu 18:12:06 41.7061 -124.2031 179° South 537 995 11,887  Level Seattle Center
Thu 18:13:07 41.6658 -124.3472 250° West 455 843 11,887  Level Seattle Center
Thu 18:14:07 41.7467 -124.4464 318° Northwest 408 756 11,887  Level Seattle Center
Thu 18:15:08 41.8519 -124.5558 322° Northwest 400 740 11,887  Level Seattle Center
Thu 18:16:09 41.9389 -124.6503 321° Northwest 401 742 11,887  Level Seattle Center
Thu 18:17:10 42.0272 -124.7422 322° Northwest 402 745 11,887  Level Seattle Center
Thu 18:18:11 42.1161 -124.8361 322° Northwest 405 750 11,887 -390 Level Seattle Center
Thu 18:19:12 42.1997 -124.9233 322° Northwest 391 724 11,095 -929 Descending Seattle Center
Thu 18:20:13 42.2761 -124.9983 324° Northwest 353 653 9,997 -1,364 Descending Seattle Center
Thu 18:21:14 42.3439 -125.0708 322° Northwest 321 594 8,321 -1,647 Descending Seattle Center
Thu 18:22:14 42.4094 -125.1403 322° Northwest 305 565 6,675 -1,496 Descending Seattle Center
Thu 18:23:15 42.4800 -125.0778 33° Northeast 320 592 5,304 -1,319 Descending Seattle Center
Thu 18:24:16 42.4733 -124.9494 94° East 348 644 3,993 -1,154 Descending Seattle Center
Thu 18:25:17 42.4056 -124.8669 138° Southeast 333 616 2,957 -885 Descending Seattle Center
Thu 18:26:18 42.3403 -124.8003 143° Southeast 306 566 2,195 -525 Descending Seattle Center
Thu 18:27:19 42.2861 -124.7425 142° Southeast 275 509 1,890 -302 Descending Seattle Center
Thu 18:28:19 42.2361 -124.6947 145° Southeast 241 446 1,585 -166 Descending Seattle Center
Thu 18:29:20 42.1758 -124.6342 143° Southeast 229 425 1,554  Descending Seattle Center
Thu 18:30:21 42.1308 -124.5844 141° Southeast 218 404 1,585 15 Climbing Seattle Center
Thu 18:31:22 42.0861 -124.5378 142° Southeast 211 391 1,585  Level Seattle Center
Thu 18:32:23 42.0408 -124.4906 142° Southeast 207 383 1,585  Level Seattle Center
Thu 18:33:23 41.9958 -124.4456 143° Southeast 205 380 1,585  Level Seattle Center
Thu 18:34:24 41.9497 -124.3981 143° Southeast 206 381 1,585  Level Seattle Center
Thu 18:35:25 41.9050 -124.3497 141° Southeast 206 381 1,585  Level Seattle Center
Thu 18:36:26 41.8750 -124.2908 124° Southeast 211 391 1,585 -15 Level Seattle Center
Thu 18:37:27 41.9156 -124.2717 19° North 190 352 1,554  Descending Seattle Center
Thu 18:38:28 41.9631 -124.2939 341° North 182 336 1,585 15 Climbing Seattle Center
Thu 18:39:28 41.9997 -124.3344 321° Northwest 170 315 1,585 -15 Level Seattle Center
Thu 18:40:29 42.0383 -124.3772 321° Northwest 174 322 1,554 -15 Descending Seattle Center
Thu 18:41:30 42.0797 -124.4117 328° Northwest 177 328 1,554 15 Level Seattle Center
Thu 18:42:31 42.1289 -124.4267 347° North 180 333 1,585  Climbing Seattle Center
Thu 18:43:32 42.1864 -124.4428 348° North 178 330 1,554  Descending Seattle Center
Thu 18:44:33 42.2336 -124.4592 346° North 177 328 1,585 15 Climbing Seattle Center
Thu 18:45:33 42.2708 -124.4714 346° North 175 323 1,585 -15 Level Seattle Center
Thu 18:46:34 42.3269 -124.4922 345° North 175 323 1,554  Descending Seattle Center
Thu 18:47:35 42.3739 -124.5094 345° North 175 323 1,585 15 Climbing Seattle Center
Thu 18:48:36 42.4183 -124.5306 341° North 172 319 1,585  Level Seattle Center
Thu 18:49:37 42.4642 -124.5469 345° North 171 317 1,585  Level Seattle Center
Thu 18:50:38 42.5086 -124.5683 340° North 169 312 1,585  Level Seattle Center
Thu 18:51:39 42.5525 -124.5919 338° Northwest 170 315 1,585  Level Seattle Center
Thu 18:52:40 42.5983 -124.6053 348° North 170 315 1,585  Level Seattle Center
Thu 18:53:40 42.6428 -124.6261 341° North 169 312 1,585  Level Seattle Center
Thu 18:54:41 42.6875 -124.6431 344° North 167 309 1,585  Level Seattle Center
Thu 18:55:42 42.7322 -124.6619 343° North 169 312 1,585 -15 Level Seattle Center
Thu 18:56:43 42.7775 -124.6592 North 165 306 1,554  Descending Seattle Center
Thu 18:57:44 42.8328 -124.6317 20° North 164 304 1,585 15 Climbing Seattle Center
Thu 18:58:45 42.8792 -124.6072 21° North 170 315 1,585 -15 Level Seattle Center
Thu 18:59:46 42.9247 -124.5842 20° North 172 319 1,554  Descending Seattle Center
Thu 19:00:47 42.9708 -124.5606 21° North 174 322 1,585  Climbing Seattle Center
Thu 19:01:48 43.0158 -124.5394 19° North 174 322 1,554  Descending Seattle Center
Thu 19:02:49 43.0561 -124.5186 21° North 174 322 1,585 15 Climbing Seattle Center
Thu 19:03:50 43.1108 -124.4914 20° North 175 323 1,585 -15 Level Seattle Center
Thu 19:04:51 43.1525 -124.4731 18° North 175 323 1,554  Descending Seattle Center
Thu 19:05:52 43.2053 -124.4531 15° North 196 364 1,585  Climbing Seattle Center
Thu 19:06:53 43.2514 -124.4419 10° North 172 319 1,554  Descending Seattle Center
Thu 19:07:54 43.2986 -124.4308 10° North 172 319 1,585 15 Climbing Seattle Center
Thu 19:08:55 43.3453 -124.4189 11° North 172 319 1,585  Level Seattle Center
Thu 19:09:56 43.3928 -124.4067 11° North 173 320 1,585 -15 Level Seattle Center
Thu 19:10:57 43.4400 -124.3931 12° North 173 320 1,554 -15 Descending Seattle Center
Thu 19:11:58 43.4878 -124.3806 11° North 174 322 1,554 15 Level Seattle Center
Thu 19:12:59 43.5356 -124.3714 North 174 322 1,585 15 Climbing Seattle Center
Thu 19:14:00 43.5844 -124.3617 North 175 323 1,585  Level Seattle Center
Thu 19:15:01 43.6314 -124.3531 North 173 320 1,585  Level Seattle Center
Thu 19:16:02 43.6797 -124.3439 North 173 320 1,585 -15 Level Seattle Center
Thu 19:17:03 43.7383 -124.3414 North 175 323 1,554 -15 Descending Seattle Center
Thu 19:18:04 43.7867 -124.3331 North 176 327 1,554 15 Level Seattle Center
Thu 19:19:05 43.8347 -124.3247 North 175 323 1,585 15 Climbing Seattle Center
Thu 19:20:06 43.8825 -124.3211 North 173 320 1,585  Level Seattle Center
Thu 19:21:07 43.9300 -124.3125 North 173 320 1,585  Level Seattle Center
Thu 19:22:08 43.9778 -124.3064 North 172 319 1,585 15 Level Seattle Center
Thu 19:23:09 44.0258 -124.3003 North 173 320 1,615 15 Climbing Seattle Center
Thu 19:24:10 44.0736 -124.2900 North 173 320 1,615  Level Seattle Center
Thu 19:25:11 44.1225 -124.2833 North 175 323 1,615  Level Seattle Center
Thu 19:26:12 44.1697 -124.2728 North 174 322 1,615  Level Seattle Center
Thu 19:27:13 44.2167 -124.2650 North 172 319 1,615  Level Seattle Center
Thu 19:28:14 44.2633 -124.2569 North 170 315 1,615  Level Seattle Center
Thu 19:29:15 44.3217 -124.2433 North 174 322 1,615  Level Seattle Center
Thu 19:30:16 44.3697 -124.2344 North 175 323 1,615  Level Seattle Center
Thu 19:31:17 44.4183 -124.2239 North 175 323 1,615  Level Seattle Center
Thu 19:32:18 44.4669 -124.2150 North 176 327 1,615 -15 Level Seattle Center
Thu 19:33:19 44.5161 -124.2025 10° North 176 327 1,585  Descending Seattle Center
Thu 19:34:20 44.5658 -124.1911 North 177 328 1,615 15 Climbing Seattle Center
Thu 19:35:21 44.6139 -124.1769 12° North 175 323 1,615 -15 Level Seattle Center
Thu 19:36:22 44.6625 -124.1656 North 177 328 1,585 -15 Descending Seattle Center
Thu 19:37:23 44.7294 -124.1508 North 227 420 1,585 525 Level Seattle Center
Thu 19:38:24 44.7981 -124.1361 North 248 459 2,652 839 Climbing Seattle Center
Thu 19:39:25 44.8639 -124.0950 24° Northeast 263 488 3,292 689 Climbing Seattle Center
Thu 19:40:26 44.9553 -124.0428 22° Northeast 335 621 4,054 854 Climbing Seattle Center
Thu 19:41:27 45.0556 -123.9881 21° North 371 687 5,029 689 Climbing Seattle Center
Thu 19:42:28 45.1581 -123.9314 21° North 387 716 5,456 210 Climbing Seattle Center
Thu 19:43:29 45.2614 -123.8781 20° North 392 726 5,456 15 Level Seattle Center
Thu 19:44:30 45.3636 -123.8194 22° Northeast 393 727 5,486 30 Climbing Seattle Center
Thu 19:45:31 45.4822 -123.7392 25° Northeast 394 729 5,517  Climbing Seattle Center
Thu 19:46:32 45.5708 -123.6658 30° Northeast 372 689 5,486 -15 Descending Seattle Center
Thu 19:47:33 45.6478 -123.6156 25° Northeast 308 570 5,486  Level Seattle Center
Thu 19:48:34 45.7214 -123.5689 24° Northeast 292 541 5,486  Level Seattle Center
Thu 19:49:35 45.7950 -123.5256 22° Northeast 287 531 5,486  Level Seattle Center
Thu 19:50:36 45.8683 -123.4811 23° Northeast 287 531 5,486 -15 Level Seattle Center
Thu 19:51:37 45.9431 -123.4394 21° North 288 533 5,456  Descending Seattle Center
Thu 19:52:38 46.0167 -123.3939 23° Northeast 289 536 5,486  Climbing Seattle Center
Thu 19:53:39 46.0919 -123.3556 19° North 289 536 5,456  Descending Seattle Center
Thu 19:54:40 46.1672 -123.3172 19° North 288 533 5,486 15 Climbing Seattle Center
Thu 19:55:41 46.2422 -123.2828 18° North 284 526 5,486  Level Seattle Center
Thu 19:56:42 46.3192 -123.2525 15° North 285 528 5,486  Level Seattle Center
Thu 19:57:43 46.3947 -123.2306 11° North 279 517 5,486 -60 Level Seattle Center
Thu 19:58:44 46.4747 -123.2017 14° North 277 513 5,364 -135 Descending Seattle Center
Thu 19:59:45 46.5486 -123.1539 24° Northeast 287 531 5,212 -90 Descending Seattle Center
Thu 20:00:46 46.6222 -123.1047 25° Northeast 292 541 5,182  Descending Seattle Center
Thu 20:01:47 46.7106 -123.0486 24° Northeast 288 533 5,212 15 Climbing Seattle Center
Thu 20:02:48 46.7836 -123.0081 21° North 283 525 5,212 -19 Level Seattle Center
Thu 20:03:24 46.8314 -122.9883 16° North 288 533 5,182 -30 Descending Seattle Center
Thu 20:03:49 46.8608 -122.9686 25° Northeast 295 546 5,182  Level Seattle Center
Thu 20:04:13 46.8892 -122.9542 19° North 293 542 5,182  Level Seattle Center
Thu 20:04:50 46.9331 -122.9156 31° Northeast 297 550 5,182  Level Seattle Center
Thu 20:05:07 46.9561 -122.9025 21° North 293 542 5,182 -150 Level Seattle Center
Thu 20:05:51 47.0036 -122.8594 32° Northeast 289 536 5,029 -270 Descending Seattle Center
Thu 20:06:08 47.0275 -122.8417 27° Northeast 296 549 4,907 -539 Descending Seattle Center
Thu 20:06:52 47.0764 -122.7783 41° Northeast 304 563 4,481 -480 Descending Seattle Center
Thu 20:07:09 47.0889 -122.7600 45° Northeast 304 563 4,420 -180 Descending Seattle Center
Thu 20:07:53 47.1311 -122.6975 45° Northeast 277 513 4,298 -240 Descending Seattle Center
Thu 20:08:10 47.1428 -122.6822 42° Northeast 268 496 4,176 -330 Descending Seattle Center
Thu 20:08:54 47.1836 -122.6236 44° Northeast 265 491 3,962 -266 Descending Seattle Center
Thu 20:09:05 47.1919 -122.6133 40° Northeast 256 475 3,932 -270 Descending Seattle Center
Thu 20:09:55 47.2372 -122.5586 39° Northeast 252 467 3,688 -335 Descending Seattle Center
Thu 20:10:05 47.2453 -122.5517 30° Northeast 251 465 3,597 -390 Descending Seattle Center
Thu 20:10:56 47.2967 -122.4925 38° Northeast 250 463 3,292 -333 Descending Seattle Center
Thu 20:11:00 47.2972 -122.4939 301° West 246 455 3,292 -390 Level Seattle Center
Thu 20:11:57 47.3561 -122.4644 19° North 235 435 2,896 -390 Descending Seattle Center
Thu 20:12:01 47.3544 -122.4658 209° Southwest 226 418 2,896 -480 Level Seattle Center
Thu 20:12:58 47.4164 -122.4636 North 218 404 2,408 -526 Descending Seattle Center
Thu 20:13:07 47.4258 -122.4661 350° North 207 383 2,316 -720 Descending Seattle Center
Thu 20:13:59 47.4739 -122.4689 358° North 208 385 1,676 -710 Descending Seattle Center
Thu 20:14:14 47.4872 -122.4719 351° North 207 383 1,524 -420 Descending Seattle Center
Thu 20:15:00 47.5292 -122.4786 354° North 200 370 1,250 -373 Descending Seattle Center
Thu 20:15:03 47.5333 -122.4792 355° North 196 364 1,219 -150 Descending Seattle Center
Thu 20:16:01 47.5775 -122.4903 350° North 179 332 1,097 -152 Descending Seattle Center
Thu 20:16:03 47.5811 -122.4925 337° Northwest 176 327 1,067 -210 Descending Seattle Center
Thu 20:17:02 47.6289 -122.5050 350° North 176 327 884 -180 Descending Seattle Center
Thu 20:17:04 47.6308 -122.5047 North 177 328 884 -180 Level Seattle Center
Thu 20:18:03 47.6686 -122.4656 35° Northeast 176 327 701 -150 Descending Seattle Center
Thu 20:18:17 47.6731 -122.4517 65° Northeast 172 319 701 -60 Level Seattle Center
Thu 20:19:04 47.6594 -122.4028 112° Southeast 175 323 640 -76 Descending Seattle Center
Thu 20:19:05 47.6608 -122.4028 360° North 172 319 640 -30 Level Seattle Center
Thu 20:20:05 47.6169 -122.3772 159° South 166 307 610 -75 Descending Seattle Center
Thu 20:20:18 47.6081 -122.3694 149° Southeast 163 303 549 -300 Descending Seattle Center
Thu 20:21:12 47.5744 -122.3419 151° Southeast 153 283 274 -252 Descending Seattle Center
Thu 20:22:07 47.5461 -122.3169 149° Southeast 154 285 91 2,696 Descending Seattle Center
Thu 20:23:08 47.5033 -122.2808 150° Southeast 153 283 5,486 5,307 Climbing Seattle Center

Login

Don't have an account? Register now (free) for customized features, flight alerts, and more!